sensor_id;sensor_type;location;lat;lon;timestamp;pressure;altitude;pressure_sealevel;temperature;humidity
50103;BME280;35993;52.604;10.078;2023-02-13T00:02:22;103449.50;;;6.66;100.00
50103;BME280;35993;52.604;10.078;2023-02-13T00:04:48;103440.66;;;6.75;100.00
50103;BME280;35993;52.604;10.078;2023-02-13T00:07:13;103447.53;;;6.79;100.00
50103;BME280;35993;52.604;10.078;2023-02-13T00:09:39;103446.78;;;6.77;100.00
50103;BME280;35993;52.604;10.078;2023-02-13T00:12:06;103444.59;;;6.71;100.00
50103;BME280;35993;52.604;10.078;2023-02-13T00:14:36;103440.56;;;6.65;100.00
50103;BME280;35993;52.604;10.078;2023-02-13T00:17:03;103442.50;;;6.63;100.00
50103;BME280;35993;52.604;10.078;2023-02-13T00:19:29;103445.19;;;6.63;100.00
50103;BME280;35993;52.604;10.078;2023-02-13T00:21:54;103448.16;;;6.71;100.00
50103;BME280;35993;52.604;10.078;2023-02-13T00:24:20;103445.94;;;6.65;100.00
50103;BME280;35993;52.604;10.078;2023-02-13T00:26:46;103450.25;;;6.68;100.00
50103;BME280;35993;52.604;10.078;2023-02-13T00:29:11;103445.34;;;6.73;100.00
50103;BME280;35993;52.604;10.078;2023-02-13T00:31:37;103443.97;;;6.79;100.00
50103;BME280;35993;52.604;10.078;2023-02-13T00:34:02;103444.44;;;6.72;100.00
50103;BME280;35993;52.604;10.078;2023-02-13T00:36:28;103447.41;;;6.69;100.00
50103;BME280;35993;52.604;10.078;2023-02-13T00:38:53;103442.88;;;6.70;100.00
50103;BME280;35993;52.604;10.078;2023-02-13T00:41:19;103443.13;;;6.67;100.00
50103;BME280;35993;52.604;10.078;2023-02-13T00:43:46;103443.00;;;6.68;100.00
50103;BME280;35993;52.604;10.078;2023-02-13T00:46:12;103443.88;;;6.69;100.00
50103;BME280;35993;52.604;10.078;2023-02-13T00:48:38;103445.47;;;6.71;100.00
50103;BME280;35993;52.604;10.078;2023-02-13T00:51:05;103445.19;;;6.63;100.00
50103;BME280;35993;52.604;10.078;2023-02-13T00:53:31;103441.53;;;6.64;100.00
50103;BME280;35993;52.604;10.078;2023-02-13T00:55:56;103434.66;;;6.60;100.00
50103;BME280;35993;52.604;10.078;2023-02-13T00:58:22;103433.78;;;6.60;100.00
50103;BME280;35993;52.604;10.078;2023-02-13T01:00:51;103437.25;;;6.62;100.00
50103;BME280;35993;52.604;10.078;2023-02-13T01:03:18;103444.97;;;6.66;100.00
50103;BME280;35993;52.604;10.078;2023-02-13T01:05:44;103442.28;;;6.66;100.00
50103;BME280;35993;52.604;10.078;2023-02-13T01:08:11;103433.31;;;6.66;100.00
50103;BME280;35993;52.604;10.078;2023-02-13T01:10:38;103436.75;;;6.68;100.00
50103;BME280;35993;52.604;10.078;2023-02-13T01:13:06;103430.59;;;6.66;100.00
50103;BME280;35993;52.604;10.078;2023-02-13T01:15:32;103421.03;;;6.62;100.00
50103;BME280;35993;52.604;10.078;2023-02-13T01:17:58;103432.59;;;6.64;100.00
50103;BME280;35993;52.604;10.078;2023-02-13T01:20:26;103425.59;;;6.61;100.00
50103;BME280;35993;52.604;10.078;2023-02-13T01:22:51;103420.19;;;6.61;100.00
50103;BME280;35993;52.604;10.078;2023-02-13T01:25:17;103422.16;;;6.70;100.00
50103;BME280;35993;52.604;10.078;2023-02-13T01:27:43;103422.63;;;6.76;100.00
50103;BME280;35993;52.604;10.078;2023-02-13T01:30:13;103418.06;;;6.76;100.00
50103;BME280;35993;52.604;10.078;2023-02-13T01:32:40;103421.25;;;6.81;100.00
50103;BME280;35993;52.604;10.078;2023-02-13T01:35:07;103421.78;;;6.64;100.00
50103;BME280;35993;52.604;10.078;2023-02-13T01:37:32;103422.00;;;6.72;100.00
50103;BME280;35993;52.604;10.078;2023-02-13T01:39:59;103419.66;;;6.67;100.00
50103;BME280;35993;52.604;10.078;2023-02-13T01:42:30;103422.91;;;6.61;100.00
50103;BME280;35993;52.604;10.078;2023-02-13T01:44:58;103412.44;;;6.68;100.00
50103;BME280;35993;52.604;10.078;2023-02-13T01:50:17;103408.88;;;6.67;100.00
50103;BME280;35993;52.604;10.078;2023-02-13T01:52:53;103403.75;;;6.64;100.00
50103;BME280;35993;52.604;10.078;2023-02-13T01:55:22;103404.97;;;6.60;100.00
50103;BME280;35993;52.604;10.078;2023-02-13T01:57:53;103412.47;;;6.56;100.00
50103;BME280;35993;52.604;10.078;2023-02-13T02:00:21;103408.78;;;6.58;100.00
50103;BME280;35993;52.604;10.078;2023-02-13T02:02:52;103411.34;;;6.59;100.00
50103;BME280;35993;52.604;10.078;2023-02-13T02:05:26;103403.75;;;6.64;100.00
50103;BME280;35993;52.604;10.078;2023-02-13T02:07:55;103410.59;;;6.57;100.00
50103;BME280;35993;52.604;10.078;2023-02-13T02:10:22;103404.50;;;6.66;100.00
50103;BME280;35993;52.604;10.078;2023-02-13T02:15:37;103412.19;;;6.71;100.00
50103;BME280;35993;52.604;10.078;2023-02-13T02:18:08;103411.97;;;6.63;100.00
50103;BME280;35993;52.604;10.078;2023-02-13T02:32:07;103389.63;;;6.72;100.00
50103;BME280;35993;52.604;10.078;2023-02-13T02:34:59;103389.00;;;6.80;100.00
50103;BME280;35993;52.604;10.078;2023-02-13T02:40:25;103392.94;;;6.76;100.00
50103;BME280;35993;52.604;10.078;2023-02-13T02:45:36;103387.25;;;6.79;100.00
50103;BME280;35993;52.604;10.078;2023-02-13T02:48:09;103385.44;;;6.79;100.00
50103;BME280;35993;52.604;10.078;2023-02-13T02:51:58;103376.47;;;6.79;100.00
50103;BME280;35993;52.604;10.078;2023-02-13T02:56:38;103379.09;;;6.69;100.00
50103;BME280;35993;52.604;10.078;2023-02-13T02:59:16;103369.88;;;6.71;100.00
50103;BME280;35993;52.604;10.078;2023-02-13T03:02:04;103384.97;;;6.74;100.00
50103;BME280;35993;52.604;10.078;2023-02-13T03:04:52;103375.84;;;6.75;100.00
50103;BME280;35993;52.604;10.078;2023-02-13T03:07:37;103375.00;;;6.75;100.00
50103;BME280;35993;52.604;10.078;2023-02-13T03:10:10;103371.31;;;6.76;100.00
50103;BME280;35993;52.604;10.078;2023-02-13T03:13:04;103373.06;;;6.77;100.00
50103;BME280;35993;52.604;10.078;2023-02-13T03:15:51;103374.88;;;6.76;100.00
50103;BME280;35993;52.604;10.078;2023-02-13T03:18:56;103377.56;;;6.76;100.00
50103;BME280;35993;52.604;10.078;2023-02-13T03:21:55;103379.56;;;6.74;100.00
50103;BME280;35993;52.604;10.078;2023-02-13T03:35:44;103363.09;;;6.77;100.00
50103;BME280;35993;52.604;10.078;2023-02-13T03:41:34;103364.97;;;6.65;100.00
50103;BME280;35993;52.604;10.078;2023-02-13T03:44:22;103374.25;;;6.72;100.00
50103;BME280;35993;52.604;10.078;2023-02-13T03:46:52;103376.13;;;6.72;100.00
50103;BME280;35993;52.604;10.078;2023-02-13T03:49:22;103376.97;;;6.72;100.00
50103;BME280;35993;52.604;10.078;2023-02-13T03:52:15;103376.13;;;6.72;100.00
50103;BME280;35993;52.604;10.078;2023-02-13T03:54:53;103376.13;;;6.72;100.00
50103;BME280;35993;52.604;10.078;2023-02-13T03:57:41;103381.31;;;6.64;100.00
50103;BME280;35993;52.604;10.078;2023-02-13T04:00:27;103381.31;;;6.64;100.00
50103;BME280;35993;52.604;10.078;2023-02-13T04:03:14;103380.28;;;6.65;100.00
50103;BME280;35993;52.604;10.078;2023-02-13T04:05:47;103373.06;;;6.65;100.00
50103;BME280;35993;52.604;10.078;2023-02-13T04:08:14;103375.50;;;6.68;100.00
50103;BME280;35993;52.604;10.078;2023-02-13T04:10:57;103371.09;;;6.67;100.00
50103;BME280;35993;52.604;10.078;2023-02-13T04:13:31;103376.47;;;6.67;100.00
50103;BME280;35993;52.604;10.078;2023-02-13T04:16:14;103379.09;;;6.69;100.00
50103;BME280;35993;52.604;10.078;2023-02-13T04:18:42;103381.78;;;6.69;100.00
50103;BME280;35993;52.604;10.078;2023-02-13T04:21:08;103380.91;;;6.68;100.00
50103;BME280;35993;52.604;10.078;2023-02-13T04:23:34;103376.75;;;6.64;100.00
50103;BME280;35993;52.604;10.078;2023-02-13T04:26:02;103371.47;;;6.63;100.00
50103;BME280;35993;52.604;10.078;2023-02-13T04:28:29;103374.41;;;6.71;100.00
50103;BME280;35993;52.604;10.078;2023-02-13T04:30:55;103372.31;;;6.75;100.00
50103;BME280;35993;52.604;10.078;2023-02-13T04:33:21;103375.97;;;6.73;100.00
50103;BME280;35993;52.604;10.078;2023-02-13T04:35:47;103380.41;;;6.75;100.00
50103;BME280;35993;52.604;10.078;2023-02-13T04:38:12;103357.59;;;6.67;100.00
50103;BME280;35993;52.604;10.078;2023-02-13T04:40:38;103366.44;;;6.58;100.00
50103;BME280;35993;52.604;10.078;2023-02-13T04:43:03;103359.22;;;6.59;100.00
50103;BME280;35993;52.604;10.078;2023-02-13T04:45:29;103368.66;;;6.64;100.00
50103;BME280;35993;52.604;10.078;2023-02-13T04:47:56;103368.38;;;6.67;100.00
50103;BME280;35993;52.604;10.078;2023-02-13T04:50:22;103365.59;;;6.69;100.00
50103;BME280;35993;52.604;10.078;2023-02-13T04:52:56;103359.19;;;6.70;100.00
50103;BME280;35993;52.604;10.078;2023-02-13T04:55:23;103358.13;;;6.61;100.00
50103;BME280;35993;52.604;10.078;2023-02-13T04:57:54;103362.91;;;6.58;100.00
50103;BME280;35993;52.604;10.078;2023-02-13T05:00:21;103359.81;;;6.51;100.00
50103;BME280;35993;52.604;10.078;2023-02-13T05:02:47;103369.16;;;6.47;100.00
50103;BME280;35993;52.604;10.078;2023-02-13T05:05:12;103361.31;;;6.55;100.00
50103;BME280;35993;52.604;10.078;2023-02-13T05:07:38;103366.22;;;6.61;100.00
50103;BME280;35993;52.604;10.078;2023-02-13T05:10:05;103369.00;;;6.60;100.00
50103;BME280;35993;52.604;10.078;2023-02-13T05:12:31;103364.34;;;6.62;100.00
50103;BME280;35993;52.604;10.078;2023-02-13T05:14:56;103367.06;;;6.62;100.00
50103;BME280;35993;52.604;10.078;2023-02-13T05:17:22;103370.03;;;6.59;100.00
50103;BME280;35993;52.604;10.078;2023-02-13T05:19:47;103366.56;;;6.56;100.00
50103;BME280;35993;52.604;10.078;2023-02-13T05:22:13;103363.38;;;6.63;100.00
50103;BME280;35993;52.604;10.078;2023-02-13T05:24:57;103370.59;;;6.62;100.00
50103;BME280;35993;52.604;10.078;2023-02-13T05:27:22;103370.97;;;6.69;100.00
50103;BME280;35993;52.604;10.078;2023-02-13T05:29:48;103361.03;;;6.58;100.00
50103;BME280;35993;52.604;10.078;2023-02-13T05:32:13;103364.63;;;6.59;100.00
50103;BME280;35993;52.604;10.078;2023-02-13T05:34:39;103362.91;;;6.58;100.00
50103;BME280;35993;52.604;10.078;2023-02-13T05:37:05;103370.59;;;6.62;100.00
50103;BME280;35993;52.604;10.078;2023-02-13T05:39:30;103370.13;;;6.57;100.00
50103;BME280;35993;52.604;10.078;2023-02-13T05:41:56;103375.91;;;6.64;100.00
50103;BME280;35993;52.604;10.078;2023-02-13T05:44:21;103375.03;;;6.63;100.00
50103;BME280;35993;52.604;10.078;2023-02-13T05:46:47;103376.13;;;6.61;100.00
50103;BME280;35993;52.604;10.078;2023-02-13T05:49:14;103374.31;;;6.61;100.00
50103;BME280;35993;52.604;10.078;2023-02-13T05:51:41;103370.38;;;6.65;100.00
50103;BME280;35993;52.604;10.078;2023-02-13T05:54:07;103370.13;;;6.57;100.00
50103;BME280;35993;52.604;10.078;2023-02-13T05:56:33;103372.94;;;6.55;100.00
50103;BME280;35993;52.604;10.078;2023-02-13T05:58:59;103372.09;;;6.55;100.00
50103;BME280;35993;52.604;10.078;2023-02-13T06:01:24;103377.00;;;6.61;100.00
50103;BME280;35993;52.604;10.078;2023-02-13T06:03:50;103380.56;;;6.62;100.00
50103;BME280;35993;52.604;10.078;2023-02-13T06:06:16;103373.81;;;6.56;100.00
50103;BME280;35993;52.604;10.078;2023-02-13T06:08:42;103379.31;;;6.54;100.00
50103;BME280;35993;52.604;10.078;2023-02-13T06:11:08;103377.72;;;6.52;100.00
50103;BME280;35993;52.604;10.078;2023-02-13T06:13:34;103389.16;;;6.55;100.00
50103;BME280;35993;52.604;10.078;2023-02-13T06:15:59;103393.31;;;6.60;100.00
50103;BME280;35993;52.604;10.078;2023-02-13T06:18:25;103388.66;;;6.62;100.00
50103;BME280;35993;52.604;10.078;2023-02-13T06:20:51;103386.94;;;6.61;100.00
50103;BME280;35993;52.604;10.078;2023-02-13T06:23:16;103400.56;;;6.59;100.00
50103;BME280;35993;52.604;10.078;2023-02-13T06:25:42;103400.56;;;6.59;100.00
50103;BME280;35993;52.604;10.078;2023-02-13T06:28:08;103401.78;;;6.55;100.00
50103;BME280;35993;52.604;10.078;2023-02-13T06:30:33;103398.00;;;6.58;100.00
50103;BME280;35993;52.604;10.078;2023-02-13T06:32:59;103400.91;;;6.54;100.00
50103;BME280;35993;52.604;10.078;2023-02-13T06:35:25;103397.09;;;6.57;100.00
50103;BME280;35993;52.604;10.078;2023-02-13T06:37:51;103399.72;;;6.59;100.00
50103;BME280;35993;52.604;10.078;2023-02-13T06:40:17;103398.69;;;6.60;100.00
50103;BME280;35993;52.604;10.078;2023-02-13T06:42:44;103400.44;;;6.61;100.00
50103;BME280;35993;52.604;10.078;2023-02-13T06:45:10;103393.06;;;6.63;100.00
50103;BME280;35993;52.604;10.078;2023-02-13T06:47:40;103395.91;;;6.61;100.00
50103;BME280;35993;52.604;10.078;2023-02-13T06:50:06;103397.84;;;6.59;100.00
50103;BME280;35993;52.604;10.078;2023-02-13T06:52:32;103396.00;;;6.60;100.00
50103;BME280;35993;52.604;10.078;2023-02-13T06:54:57;103396.75;;;6.62;100.00
50103;BME280;35993;52.604;10.078;2023-02-13T06:57:23;103392.31;;;6.61;100.00
50103;BME280;35993;52.604;10.078;2023-02-13T06:59:48;103398.59;;;6.61;100.00
50103;BME280;35993;52.604;10.078;2023-02-13T07:02:14;103412.69;;;6.65;100.00
50103;BME280;35993;52.604;10.078;2023-02-13T07:04:39;103417.09;;;6.66;100.00
50103;BME280;35993;52.604;10.078;2023-02-13T07:07:05;103416.50;;;6.62;100.00
50103;BME280;35993;52.604;10.078;2023-02-13T07:09:31;103411.47;;;6.58;100.00
50103;BME280;35993;52.604;10.078;2023-02-13T07:11:57;103417.84;;;6.56;100.00
50103;BME280;35993;52.604;10.078;2023-02-13T07:14:22;103410.72;;;6.55;100.00
50103;BME280;35993;52.604;10.078;2023-02-13T07:16:48;103420.28;;;6.60;100.00
50103;BME280;35993;52.604;10.078;2023-02-13T07:19:13;103414.06;;;6.59;100.00
50103;BME280;35993;52.604;10.078;2023-02-13T07:21:39;103427.69;;;6.58;100.00
50103;BME280;35993;52.604;10.078;2023-02-13T07:24:04;103430.38;;;6.58;100.00
50103;BME280;35993;52.604;10.078;2023-02-13T07:26:30;103427.91;;;6.54;100.00
50103;BME280;35993;52.604;10.078;2023-02-13T07:28:56;103426.94;;;6.55;100.00
50103;BME280;35993;52.604;10.078;2023-02-13T07:31:21;103421.66;;;6.54;100.00
50103;BME280;35993;52.604;10.078;2023-02-13T07:33:48;103421.41;;;6.57;100.00
50103;BME280;35993;52.604;10.078;2023-02-13T07:36:14;103419.31;;;6.61;100.00
50103;BME280;35993;52.604;10.078;2023-02-13T07:38:39;103418.22;;;6.63;100.00
50103;BME280;35993;52.604;10.078;2023-02-13T07:41:05;103424.34;;;6.65;100.00
50103;BME280;35993;52.604;10.078;2023-02-13T07:43:31;103423.25;;;6.68;100.00
50103;BME280;35993;52.604;10.078;2023-02-13T07:46:00;103421.53;;;6.67;100.00
50103;BME280;35993;52.604;10.078;2023-02-13T07:48:27;103427.06;;;6.65;100.00
50103;BME280;35993;52.604;10.078;2023-02-13T07:50:54;103432.81;;;6.72;100.00
50103;BME280;35993;52.604;10.078;2023-02-13T07:53:23;103432.69;;;6.73;100.00
50103;BME280;35993;52.604;10.078;2023-02-13T07:55:49;103434.75;;;6.70;100.00
50103;BME280;35993;52.604;10.078;2023-02-13T07:58:14;103427.66;;;6.69;100.00
50103;BME280;35993;52.604;10.078;2023-02-13T08:00:40;103435.25;;;6.75;100.00
50103;BME280;35993;52.604;10.078;2023-02-13T08:03:05;103436.75;;;6.79;100.00
50103;BME280;35993;52.604;10.078;2023-02-13T08:05:31;103437.44;;;6.81;100.00
50103;BME280;35993;52.604;10.078;2023-02-13T08:07:58;103446.53;;;6.80;100.00
50103;BME280;35993;52.604;10.078;2023-02-13T08:10:23;103442.63;;;6.73;100.00
50103;BME280;35993;52.604;10.078;2023-02-13T08:13:08;103445.94;;;6.77;100.00
50103;BME280;35993;52.604;10.078;2023-02-13T08:15:35;103438.69;;;6.77;100.00
50103;BME280;35993;52.604;10.078;2023-02-13T08:18:00;103452.06;;;6.79;100.00
50103;BME280;35993;52.604;10.078;2023-02-13T08:20:26;103449.13;;;6.70;100.00
50103;BME280;35993;52.604;10.078;2023-02-13T08:22:51;103443.47;;;6.73;100.00
50103;BME280;35993;52.604;10.078;2023-02-13T08:25:17;103452.47;;;6.74;100.00
50103;BME280;35993;52.604;10.078;2023-02-13T08:27:44;103446.03;;;6.75;100.00
50103;BME280;35993;52.604;10.078;2023-02-13T08:30:10;103451.09;;;6.80;100.00
50103;BME280;35993;52.604;10.078;2023-02-13T08:32:37;103452.44;;;6.85;100.00
50103;BME280;35993;52.604;10.078;2023-02-13T08:35:02;103450.94;;;6.81;100.00
50103;BME280;35993;52.604;10.078;2023-02-13T08:37:28;103456.75;;;6.77;100.00
50103;BME280;35993;52.604;10.078;2023-02-13T08:39:54;103452.94;;;6.79;100.00
50103;BME280;35993;52.604;10.078;2023-02-13T08:42:19;103442.38;;;6.76;100.00
50103;BME280;35993;52.604;10.078;2023-02-13T08:44:45;103447.78;;;6.76;100.00
50103;BME280;35993;52.604;10.078;2023-02-13T08:47:10;103447.16;;;6.72;100.00
50103;BME280;35993;52.604;10.078;2023-02-13T08:49:36;103449.84;;;6.72;100.00
50103;BME280;35993;52.604;10.078;2023-02-13T08:52:02;103448.88;;;6.73;100.00
50103;BME280;35993;52.604;10.078;2023-02-13T08:54:28;103448.25;;;6.70;100.00
50103;BME280;35993;52.604;10.078;2023-02-13T08:56:54;103451.09;;;6.68;100.00
50103;BME280;35993;52.604;10.078;2023-02-13T08:59:20;103451.22;;;6.78;100.00
50103;BME280;35993;52.604;10.078;2023-02-13T09:01:45;103450.22;;;6.91;100.00
50103;BME280;35993;52.604;10.078;2023-02-13T09:04:11;103459.78;;;6.95;100.00
50103;BME280;35993;52.604;10.078;2023-02-13T09:06:40;103445.81;;;6.89;100.00
50103;BME280;35993;52.604;10.078;2023-02-13T09:09:06;103440.38;;;7.01;100.00
50103;BME280;35993;52.604;10.078;2023-02-13T09:11:31;103447.00;;;6.97;100.00
50103;BME280;35993;52.604;10.078;2023-02-13T09:13:57;103450.81;;;6.94;100.00
50103;BME280;35993;52.604;10.078;2023-02-13T09:16:22;103447.53;;;6.91;100.00
50103;BME280;35993;52.604;10.078;2023-02-13T09:18:49;103450.94;;;6.93;100.00
50103;BME280;35993;52.604;10.078;2023-02-13T09:21:15;103446.03;;;6.86;100.00
50103;BME280;35993;52.604;10.078;2023-02-13T09:23:41;103447.53;;;6.91;100.00
50103;BME280;35993;52.604;10.078;2023-02-13T09:26:11;103442.81;;;7.04;100.00
50103;BME280;35993;52.604;10.078;2023-02-13T09:28:38;103441.22;;;7.01;100.00
50103;BME280;35993;52.604;10.078;2023-02-13T09:31:22;103441.25;;;6.90;100.00
50103;BME280;35993;52.604;10.078;2023-02-13T09:33:48;103439.91;;;6.96;100.00
50103;BME280;35993;52.604;10.078;2023-02-13T09:36:19;103442.22;;;7.00;100.00
50103;BME280;35993;52.604;10.078;2023-02-13T09:38:46;103444.78;;;7.02;100.00
50103;BME280;35993;52.604;10.078;2023-02-13T09:41:19;103445.03;;;7.10;100.00
50103;BME280;35993;52.604;10.078;2023-02-13T09:43:54;103447.44;;;7.13;100.00
50103;BME280;35993;52.604;10.078;2023-02-13T09:46:35;103445.88;;;7.11;100.00
50103;BME280;35993;52.604;10.078;2023-02-13T09:49:06;103445.53;;;7.04;100.00
50103;BME280;35993;52.604;10.078;2023-02-13T09:51:32;103447.72;;;7.10;100.00
50103;BME280;35993;52.604;10.078;2023-02-13T09:54:02;103439.63;;;7.10;100.00
50103;BME280;35993;52.604;10.078;2023-02-13T09:59:41;103441.94;;;7.15;100.00
50103;BME280;35993;52.604;10.078;2023-02-13T10:02:22;103447.34;;;7.15;100.00
50103;BME280;35993;52.604;10.078;2023-02-13T10:05:16;103449.91;;;7.28;100.00
50103;BME280;35993;52.604;10.078;2023-02-13T10:07:52;103448.00;;;7.40;100.00
50103;BME280;35993;52.604;10.078;2023-02-13T10:10:49;103454.28;;;7.29;100.00
50103;BME280;35993;52.604;10.078;2023-02-13T10:13:27;103454.19;;;7.30;100.00
50103;BME280;35993;52.604;10.078;2023-02-13T10:16:08;103449.28;;;7.24;100.00
50103;BME280;35993;52.604;10.078;2023-02-13T10:18:49;103457.28;;;7.14;100.00
50103;BME280;35993;52.604;10.078;2023-02-13T10:21:22;103462.06;;;7.22;100.00
50103;BME280;35993;52.604;10.078;2023-02-13T10:23:55;103462.38;;;7.29;100.00
50103;BME280;35993;52.604;10.078;2023-02-13T10:26:29;103452.69;;;7.26;100.00
50103;BME280;35993;52.604;10.078;2023-02-13T10:29:23;103455.50;;;7.36;100.00
50103;BME280;35993;52.604;10.078;2023-02-13T10:32:11;103450.84;;;7.38;100.00
50103;BME280;35993;52.604;10.078;2023-02-13T10:34:42;103449.34;;;7.34;100.00
50103;BME280;35993;52.604;10.078;2023-02-13T10:37:14;103452.19;;;7.32;100.00
50103;BME280;35993;52.604;10.078;2023-02-13T10:39:41;103453.91;;;7.33;100.00
50103;BME280;35993;52.604;10.078;2023-02-13T10:42:41;103455.78;;;7.33;100.00
50103;BME280;35993;52.604;10.078;2023-02-13T10:45:32;103457.59;;;7.32;100.00
50103;BME280;35993;52.604;10.078;2023-02-13T10:48:13;103451.94;;;7.35;100.00
50103;BME280;35993;52.604;10.078;2023-02-13T10:53:46;103442.72;;;7.38;100.00
50103;BME280;35993;52.604;10.078;2023-02-13T11:03:48;103444.88;;;7.44;100.00
50103;BME280;35993;52.604;10.078;2023-02-13T11:06:24;103443.06;;;7.45;100.00
50103;BME280;35993;52.604;10.078;2023-02-13T11:08:50;103444.38;;;7.50;100.00
50103;BME280;35993;52.604;10.078;2023-02-13T11:11:35;103445.88;;;7.54;100.00
50103;BME280;35993;52.604;10.078;2023-02-13T11:14:14;103446.44;;;7.58;100.00
50103;BME280;35993;52.604;10.078;2023-02-13T11:16:47;103444.59;;;7.59;100.00
50103;BME280;35993;52.604;10.078;2023-02-13T11:19:32;103444.09;;;7.65;100.00
50103;BME280;35993;52.604;10.078;2023-02-13T11:22:05;103441.16;;;7.57;100.00
50103;BME280;35993;52.604;10.078;2023-02-13T11:24:33;103443.22;;;7.64;100.00
50103;BME280;35993;52.604;10.078;2023-02-13T11:27:05;103438.94;;;7.62;100.00
50103;BME280;35993;52.604;10.078;2023-02-13T11:29:35;103434.16;;;7.54;100.00
50103;BME280;35993;52.604;10.078;2023-02-13T11:34:30;103422.31;;;7.66;100.00
50103;BME280;35993;52.604;10.078;2023-02-13T11:39:38;103418.09;;;7.74;100.00
50103;BME280;35993;52.604;10.078;2023-02-13T11:42:13;103419.66;;;7.76;100.00
50103;BME280;35993;52.604;10.078;2023-02-13T11:44:40;103426.47;;;7.70;100.00
50103;BME280;35993;52.604;10.078;2023-02-13T11:47:07;103426.63;;;7.69;100.00
50103;BME280;35993;52.604;10.078;2023-02-13T11:49:36;103423.78;;;7.70;100.00
50103;BME280;35993;52.604;10.078;2023-02-13T11:52:05;103415.66;;;7.70;100.00
50103;BME280;35993;52.604;10.078;2023-02-13T11:54:37;103421.06;;;7.70;100.00
50103;BME280;35993;52.604;10.078;2023-02-13T11:57:21;103413.03;;;7.80;100.00
50103;BME280;35993;52.604;10.078;2023-02-13T11:59:50;103419.03;;;7.84;100.00
50103;BME280;35993;52.604;10.078;2023-02-13T12:02:18;103413.22;;;7.88;100.00
50103;BME280;35993;52.604;10.078;2023-02-13T12:04:46;103411.63;;;7.86;100.00
50103;BME280;35993;52.604;10.078;2023-02-13T12:09:56;103412.50;;;7.86;100.00
50103;BME280;35993;52.604;10.078;2023-02-13T12:12:36;103405.41;;;7.95;100.00
50103;BME280;35993;52.604;10.078;2023-02-13T12:15:15;103400.22;;;8.03;100.00
50103;BME280;35993;52.604;10.078;2023-02-13T12:17:43;103399.69;;;8.10;100.00
50103;BME280;35993;52.604;10.078;2023-02-13T12:20:14;103390.88;;;8.17;100.00
50103;BME280;35993;52.604;10.078;2023-02-13T12:22:58;103389.16;;;8.16;100.00
50103;BME280;35993;52.604;10.078;2023-02-13T12:25:43;103390.69;;;8.09;100.00
50103;BME280;35993;52.604;10.078;2023-02-13T12:28:32;103390.28;;;8.14;100.00
50103;BME280;35993;52.604;10.078;2023-02-13T12:31:20;103391.28;;;8.13;100.00
50103;BME280;35993;52.604;10.078;2023-02-13T12:34:10;103394.97;;;8.12;100.00
50103;BME280;35993;52.604;10.078;2023-02-13T12:37:09;103394.88;;;8.13;100.00
50103;BME280;35993;52.604;10.078;2023-02-13T12:39:47;103394.28;;;8.19;100.00
50103;BME280;35993;52.604;10.078;2023-02-13T12:42:40;103380.06;;;8.17;100.00
50103;BME280;35993;52.604;10.078;2023-02-13T12:45:19;103378.28;;;8.07;100.00
50103;BME280;35993;52.604;10.078;2023-02-13T12:48:11;103377.34;;;8.17;100.00
50103;BME280;35993;52.604;10.078;2023-02-13T12:53:30;103376.09;;;8.22;100.00
50103;BME280;35993;52.604;10.078;2023-02-13T13:01:56;103372.41;;;8.23;100.00
50103;BME280;35993;52.604;10.078;2023-02-13T13:07:39;103377.19;;;8.40;100.00
50103;BME280;35993;52.604;10.078;2023-02-13T13:10:20;103374.00;;;8.35;100.00
50103;BME280;35993;52.604;10.078;2023-02-13T13:12:55;103368.75;;;8.43;100.00
50103;BME280;35993;52.604;10.078;2023-02-13T13:15:38;103369.38;;;8.47;100.00
50103;BME280;35993;52.604;10.078;2023-02-13T13:26:20;103363.63;;;8.40;100.00
50103;BME280;35993;52.604;10.078;2023-02-13T13:28:52;103351.94;;;8.40;100.00
50103;BME280;35993;52.604;10.078;2023-02-13T13:31:20;103355.50;;;8.40;100.00
50103;BME280;35993;52.604;10.078;2023-02-13T13:33:49;103351.09;;;8.39;100.00
50103;BME280;35993;52.604;10.078;2023-02-13T13:38:49;103345.09;;;8.35;100.00
50103;BME280;35993;52.604;10.078;2023-02-13T13:41:18;103337.66;;;8.28;100.00
50103;BME280;35993;52.604;10.078;2023-02-13T13:46:47;103346.91;;;8.25;100.00
50103;BME280;35993;52.604;10.078;2023-02-13T13:52:29;103339.50;;;8.27;100.00
50103;BME280;35993;52.604;10.078;2023-02-13T13:54:56;103342.34;;;8.26;100.00
50103;BME280;35993;52.604;10.078;2023-02-13T14:02:45;103332.50;;;8.25;100.00
50103;BME280;35993;52.604;10.078;2023-02-13T14:13:03;103319.16;;;8.33;100.00
50103;BME280;35993;52.604;10.078;2023-02-13T14:20:41;103311.03;;;8.33;100.00
50103;BME280;35993;52.604;10.078;2023-02-13T14:23:17;103312.66;;;8.45;100.00
50103;BME280;35993;52.604;10.078;2023-02-13T14:25:45;103311.66;;;8.46;100.00
50103;BME280;35993;52.604;10.078;2023-02-13T14:28:25;103315.63;;;8.42;100.00
50103;BME280;35993;52.604;10.078;2023-02-13T14:31:04;103312.75;;;8.34;100.00
50103;BME280;35993;52.604;10.078;2023-02-13T14:33:31;103313.31;;;8.28;100.00
50103;BME280;35993;52.604;10.078;2023-02-13T14:36:06;103312.84;;;8.23;100.00
50103;BME280;35993;52.604;10.078;2023-02-13T14:38:33;103314.44;;;8.35;100.00
50103;BME280;35993;52.604;10.078;2023-02-13T14:41:00;103307.91;;;8.37;100.00
50103;BME280;35993;52.604;10.078;2023-02-13T14:43:38;103318.31;;;8.42;100.00
50103;BME280;35993;52.604;10.078;2023-02-13T14:46:20;103308.47;;;8.41;100.00
50103;BME280;35993;52.604;10.078;2023-02-13T14:48:57;103317.81;;;8.48;100.00